Time;durP1;ratioP1;P1;durP2;ratioP2;P2;SDS_P1;SDS_P2;PMS_P1;PMS_P2;Temp;Humidity;BMP_temperature;BMP_pressure;BME280_temperature;BME280_humidity;BME280_pressure;Samples;Min_cycle;Max_cycle;Signal;HPM_P1;HPM_P2
2021/12/18 00:01:56;;;;;;;33.37;20.67;;;6.70;99.90;;;;;;5093855;28;20256;-54
2021/12/18 00:04:24;;;;;;;36.50;21.73;;;6.70;99.90;;;;;;5093357;28;20240;-53
2021/12/18 00:06:52;;;;;;;34.90;21.60;;;6.70;99.90;;;;;;5093860;28;20206;-54
2021/12/18 00:09:25;;;;;;;31.77;19.40;;;6.70;99.90;;;;;;5077481;28;20208;-54
2021/12/18 00:11:53;;;;;;;36.57;22.10;;;6.70;99.90;;;;;;5072869;28;20210;-54
2021/12/18 00:14:23;;;;;;;29.67;19.70;;;6.80;99.90;;;;;;5073246;28;20258;-54
2021/12/18 00:16:51;;;;;;;34.03;20.00;;;6.80;99.90;;;;;;5073291;28;20235;-53
2021/12/18 00:19:24;;;;;;;31.97;20.47;;;6.80;99.90;;;;;;5088652;28;20717;-53
2021/12/18 00:21:52;;;;;;;32.30;20.13;;;6.80;99.90;;;;;;5093527;28;20201;-55
2021/12/18 00:24:21;;;;;;;31.70;20.67;;;6.70;99.90;;;;;;5093299;28;20624;-55
2021/12/18 00:26:49;;;;;;;35.23;21.37;;;6.80;99.90;;;;;;5093186;28;20642;-53
2021/12/18 00:29:17;;;;;;;32.50;20.43;;;6.70;99.90;;;;;;5089481;28;20271;-53
2021/12/18 00:31:47;;;;;;;33.03;20.37;;;6.80;99.90;;;;;;5072584;28;20705;-54
2021/12/18 00:34:15;;;;;;;34.33;20.93;;;6.80;99.90;;;;;;5072766;28;20332;-53
2021/12/18 00:36:43;;;;;;;36.60;20.67;;;6.80;99.90;;;;;;5085625;28;20290;-54
2021/12/18 00:39:12;;;;;;;33.50;20.37;;;6.80;99.90;;;;;;5092973;28;20231;-54
2021/12/18 00:41:59;;;;;;;33.17;20.20;;;6.80;99.90;;;;;;5093009;28;20281;-54
2021/12/18 00:44:27;;;;;;;30.00;19.07;;;6.80;99.90;;;;;;5092710;28;20244;-54
2021/12/18 00:46:57;;;;;;;33.87;20.27;;;6.90;99.90;;;;;;5093009;28;20238;-53
2021/12/18 00:49:25;;;;;;;31.33;19.60;;;6.90;99.90;;;;;;5092466;28;20214;-53
2021/12/18 00:51:53;;;;;;;29.57;19.03;;;6.90;99.90;;;;;;5092464;28;20676;-54
2021/12/18 00:54:21;;;;;;;33.90;19.50;;;6.90;99.90;;;;;;5071754;28;20711;-54
2021/12/18 00:56:49;;;;;;;32.67;19.67;;;6.90;99.90;;;;;;5072524;28;20239;-53
2021/12/18 00:59:17;;;;;;;33.17;19.67;;;7.00;99.90;;;;;;5072009;28;20299;-54
2021/12/18 01:01:46;;;;;;;29.67;18.30;;;6.90;99.90;;;;;;5071973;28;20248;-54
2021/12/18 01:04:16;;;;;;;32.13;20.30;;;6.90;99.90;;;;;;5071907;28;20235;-54
2021/12/18 01:06:45;;;;;;;29.30;18.77;;;6.90;99.90;;;;;;5072117;28;20201;-53
2021/12/18 01:09:13;;;;;;;33.97;19.97;;;6.90;99.90;;;;;;5086415;28;20253;-53
2021/12/18 01:11:44;;;;;;;33.07;19.77;;;6.90;99.90;;;;;;5092178;28;20253;-53
2021/12/18 01:14:29;;;;;;;31.37;19.40;;;6.90;99.90;;;;;;5083681;28;20254;-52
2021/12/18 01:22:42;;;;;;;30.77;18.43;;;6.90;99.90;;;;;;5093138;28;20230;-52
2021/12/18 01:22:48;;;;;;;31.33;20.40;;;6.80;99.90;;;;;;5091830;28;20732;-53
2021/12/18 01:25:19;;;;;;;35.80;21.13;;;6.80;99.90;;;;;;5091354;28;20197;-54
2021/12/18 01:27:48;;;;;;;32.03;19.90;;;6.90;99.90;;;;;;5089543;28;20265;-53
2021/12/18 01:30:19;;;;;;;33.90;19.83;;;6.90;99.90;;;;;;5071539;28;20240;-53
2021/12/18 01:32:48;;;;;;;34.57;21.97;;;7.00;99.90;;;;;;5071496;28;20239;-54
2021/12/18 01:35:17;;;;;;;36.97;21.80;;;6.90;99.90;;;;;;5071810;28;20220;-53
2021/12/18 01:37:46;;;;;;;32.37;21.00;;;6.90;99.90;;;;;;5071495;28;20331;-53
2021/12/18 01:40:14;;;;;;;36.97;22.20;;;7.00;99.90;;;;;;5082686;28;20632;-54
2021/12/18 01:45:42;;;;;;;36.33;23.20;;;6.90;99.90;;;;;;5091730;28;20214;-54
2021/12/18 01:51:22;;;;;;;35.20;21.27;;;7.00;99.90;;;;;;5028901;28;20299;-54
2021/12/18 01:53:53;;;;;;;31.90;20.40;;;7.00;99.90;;;;;;5083046;28;20245;-52
2021/12/18 01:56:23;;;;;;;29.80;19.50;;;7.00;99.90;;;;;;5086025;28;20224;-52
2021/12/18 01:58:51;;;;;;;33.50;20.73;;;7.00;99.90;;;;;;5071525;28;20294;-54
2021/12/18 02:01:20;;;;;;;34.17;21.43;;;7.00;99.90;;;;;;5071456;28;20237;-54
2021/12/18 02:03:49;;;;;;;35.77;20.33;;;6.90;99.90;;;;;;5071324;28;20260;-54
2021/12/18 02:06:20;;;;;;;31.10;19.93;;;6.90;99.90;;;;;;5071257;28;20599;-55
2021/12/18 02:08:48;;;;;;;36.60;21.30;;;6.90;99.90;;;;;;5071361;28;20290;-54
2021/12/18 02:11:26;;;;;;;35.07;20.83;;;6.90;99.90;;;;;;5082708;28;20270;-54
2021/12/18 02:14:33;;;;;;;32.20;19.90;;;6.90;99.90;;;;;;5091831;28;20322;-54
2021/12/18 02:19:52;;;;;;;36.27;21.53;;;7.00;99.90;;;;;;5091368;28;20210;-54
2021/12/18 02:22:24;;;;;;;35.47;20.73;;;6.90;99.90;;;;;;5091296;28;20661;-54
2021/12/18 02:24:52;;;;;;;31.63;21.00;;;6.90;99.90;;;;;;5091230;28;20234;-53
2021/12/18 02:27:20;;;;;;;33.40;20.77;;;6.90;99.90;;;;;;5090961;28;20227;-55
2021/12/18 02:29:48;;;;;;;35.43;21.50;;;6.90;99.90;;;;;;5091444;28;20252;-54
2021/12/18 02:32:20;;;;;;;42.73;22.63;;;6.90;99.90;;;;;;5091167;28;20353;-53
2021/12/18 02:34:56;;;;;;;33.70;20.77;;;6.90;99.90;;;;;;5089823;28;20240;-53
2021/12/18 02:37:31;;;;;;;36.33;21.50;;;6.90;99.90;;;;;;5078048;28;20273;-54
2021/12/18 02:42:50;;;;;;;35.70;20.53;;;6.90;99.90;;;;;;5095163;28;20731;-55
2021/12/18 02:45:18;;;;;;;30.87;19.80;;;6.90;99.90;;;;;;5095180;28;20254;-54
2021/12/18 02:47:48;;;;;;;42.27;21.77;;;7.00;99.90;;;;;;5095063;28;20294;-54
2021/12/18 02:50:16;;;;;;;38.17;21.50;;;7.00;99.90;;;;;;5094898;28;20599;-54
2021/12/18 02:52:46;;;;;;;37.83;21.27;;;7.00;99.90;;;;;;5088362;28;20302;-54
2021/12/18 02:55:14;;;;;;;44.17;21.80;;;7.00;99.90;;;;;;5074592;28;20256;-54
2021/12/18 02:57:42;;;;;;;43.10;22.73;;;7.00;99.90;;;;;;5074607;28;20266;-54
2021/12/18 03:00:11;;;;;;;44.17;22.93;;;7.00;99.90;;;;;;5074298;28;20648;-54
2021/12/18 03:02:42;;;;;;;44.13;23.17;;;7.00;99.90;;;;;;5074701;28;20259;-54
2021/12/18 03:05:17;;;;;;;44.23;23.17;;;7.00;99.90;;;;;;5074114;28;20237;-54
2021/12/18 03:07:48;;;;;;;53.83;25.83;;;7.00;99.90;;;;;;5088647;28;20295;-55
2021/12/18 03:24:22;;;;;;;50.63;24.07;;;6.80;99.90;;;;;;5074295;28;20349;-53
2021/12/18 03:26:50;;;;;;;66.27;26.80;;;6.80;99.90;;;;;;5076594;28;20246;-54
2021/12/18 03:29:18;;;;;;;45.50;24.33;;;6.70;99.90;;;;;;5094600;28;20244;-53
2021/12/18 03:31:46;;;;;;;75.67;28.37;;;6.70;99.90;;;;;;5094442;28;20254;-54
2021/12/18 03:34:14;;;;;;;45.83;25.03;;;6.70;99.90;;;;;;5094355;28;20314;-54
2021/12/18 03:36:42;;;;;;;52.23;24.73;;;6.70;99.90;;;;;;5081226;28;20639;-54
2021/12/18 03:39:12;;;;;;;55.80;27.27;;;6.80;99.90;;;;;;5073788;28;20242;-54
2021/12/18 03:41:40;;;;;;;59.50;26.70;;;6.90;99.90;;;;;;5073898;28;20258;-54
2021/12/18 03:44:08;;;;;;;58.53;27.70;;;6.80;99.90;;;;;;5073709;28;20268;-54
2021/12/18 03:46:36;;;;;;;58.40;26.53;;;6.80;99.90;;;;;;5077663;28;20233;-53
2021/12/18 03:49:04;;;;;;;58.10;27.57;;;6.70;99.90;;;;;;5093206;28;20241;-53
2021/12/18 03:51:32;;;;;;;51.50;26.20;;;6.70;99.90;;;;;;5093637;28;20253;-54
2021/12/18 03:54:02;;;;;;;50.00;24.77;;;6.70;99.90;;;;;;5093735;28;20292;-55
2021/12/18 03:56:31;;;;;;;59.60;26.53;;;6.70;99.90;;;;;;5093880;28;20263;-54
2021/12/18 03:58:59;;;;;;;44.73;24.27;;;6.80;99.90;;;;;;5093482;28;20677;-54
2021/12/18 04:01:28;;;;;;;46.77;25.57;;;6.90;99.90;;;;;;5093729;28;20234;-54
2021/12/18 04:03:56;;;;;;;60.90;27.20;;;6.90;99.90;;;;;;5092216;28;20837;-54
2021/12/18 04:06:25;;;;;;;52.60;26.07;;;6.80;99.90;;;;;;5093499;28;20196;-53
2021/12/18 04:08:53;;;;;;;49.73;25.03;;;6.90;99.90;;;;;;5093400;28;20633;-53
2021/12/18 04:11:21;;;;;;;64.80;28.13;;;6.90;99.90;;;;;;5093598;28;20255;-55
2021/12/18 04:13:51;;;;;;;62.93;26.67;;;6.90;99.90;;;;;;5093671;28;20260;-53
2021/12/18 04:16:21;;;;;;;54.53;25.77;;;6.80;99.90;;;;;;5093400;28;20313;-54
2021/12/18 04:18:49;;;;;;;49.27;26.03;;;6.90;99.90;;;;;;5093126;28;20297;-53
2021/12/18 04:21:18;;;;;;;46.50;24.30;;;6.80;99.90;;;;;;5093024;28;20249;-53
2021/12/18 04:23:46;;;;;;;48.47;26.70;;;6.90;99.90;;;;;;5093132;28;20270;-53
2021/12/18 04:26:15;;;;;;;44.10;23.57;;;6.90;99.90;;;;;;5093432;28;20235;-54
2021/12/18 04:28:43;;;;;;;51.30;25.97;;;6.80;99.90;;;;;;5093200;28;20243;-53
2021/12/18 04:31:13;;;;;;;56.90;27.47;;;6.90;99.90;;;;;;5093364;28;20339;-53
2021/12/18 04:33:41;;;;;;;56.67;27.87;;;6.90;99.90;;;;;;5093049;28;20255;-53
2021/12/18 04:36:09;;;;;;;57.77;26.80;;;6.80;99.90;;;;;;5084583;28;20710;-53
2021/12/18 04:38:37;;;;;;;47.93;25.73;;;6.90;99.90;;;;;;5072524;28;20208;-52
2021/12/18 04:41:06;;;;;;;48.93;25.27;;;6.90;99.90;;;;;;5072840;28;20360;-53
2021/12/18 04:43:34;;;;;;;50.17;26.97;;;6.90;99.90;;;;;;5072602;28;20270;-53
2021/12/18 04:46:02;;;;;;;46.80;24.27;;;6.90;99.90;;;;;;5072277;28;20300;-53
2021/12/18 04:48:32;;;;;;;41.80;23.97;;;6.90;99.90;;;;;;5092226;28;20237;-54
2021/12/18 04:51:00;;;;;;;39.40;22.73;;;7.00;99.90;;;;;;5092375;28;20847;-54
2021/12/18 04:53:28;;;;;;;46.43;25.43;;;7.00;99.90;;;;;;5092691;28;20255;-54
2021/12/18 04:55:56;;;;;;;48.00;24.33;;;7.00;99.90;;;;;;5092705;28;20293;-54
2021/12/18 04:58:24;;;;;;;45.93;24.07;;;7.00;99.90;;;;;;5092463;28;20251;-53
2021/12/18 05:00:53;;;;;;;50.27;25.73;;;7.00;99.90;;;;;;5090767;28;20250;-54
2021/12/18 05:03:22;;;;;;;48.17;27.90;;;6.90;99.90;;;;;;5092334;28;20269;-54
2021/12/18 05:05:51;;;;;;;56.97;27.60;;;6.90;99.90;;;;;;5092035;28;20208;-54
2021/12/18 05:08:19;;;;;;;55.80;28.00;;;6.90;99.90;;;;;;5092641;28;20297;-54
2021/12/18 05:10:47;;;;;;;67.27;29.83;;;6.90;99.90;;;;;;5091149;28;20683;-54
2021/12/18 05:13:15;;;;;;;78.87;31.47;;;6.90;99.90;;;;;;5092442;28;20268;-54
2021/12/18 05:15:43;;;;;;;92.50;31.67;;;6.80;99.90;;;;;;5092375;28;20242;-53
2021/12/18 05:18:11;;;;;;;67.37;29.97;;;6.70;99.90;;;;;;5092018;28;20263;-54
2021/12/18 05:20:40;;;;;;;82.70;31.67;;;6.70;99.90;;;;;;5091950;28;20220;-53
2021/12/18 05:23:09;;;;;;;64.27;29.43;;;6.70;99.90;;;;;;5092424;28;20265;-54
2021/12/18 05:25:37;;;;;;;60.97;27.83;;;6.80;99.90;;;;;;5092202;28;20244;-54
2021/12/18 05:28:05;;;;;;;60.73;28.87;;;6.90;99.90;;;;;;5092128;28;20228;-53
2021/12/18 05:30:33;;;;;;;50.30;26.20;;;6.90;99.90;;;;;;5097410;28;20238;-53
2021/12/18 05:33:01;;;;;;;49.93;26.80;;;6.90;99.90;;;;;;5098961;28;20258;-54
2021/12/18 05:35:30;;;;;;;51.93;26.87;;;7.00;99.90;;;;;;5084950;28;20211;-54
2021/12/18 05:38:04;;;;;;;49.53;26.97;;;7.00;99.90;;;;;;5071821;28;20261;-53
2021/12/18 05:40:37;;;;;;;45.90;25.93;;;6.90;99.90;;;;;;5072809;28;20208;-54
2021/12/18 05:43:06;;;;;;;47.03;24.87;;;6.90;99.90;;;;;;5071502;28;20314;-54
2021/12/18 05:45:35;;;;;;;42.73;24.60;;;6.90;99.90;;;;;;5071487;28;20560;-54
2021/12/18 05:48:03;;;;;;;41.37;24.13;;;6.90;99.90;;;;;;5087625;28;20246;-54
2021/12/18 05:50:32;;;;;;;43.77;23.33;;;6.90;99.90;;;;;;5071566;28;20209;-54
2021/12/18 05:53:01;;;;;;;45.90;25.53;;;6.90;99.90;;;;;;5080604;28;20250;-54
2021/12/18 05:55:30;;;;;;;41.80;23.77;;;6.90;99.90;;;;;;5090917;28;20351;-54
2021/12/18 05:57:59;;;;;;;42.07;22.67;;;7.00;99.90;;;;;;5091804;28;20282;-53
2021/12/18 06:00:27;;;;;;;42.97;23.70;;;7.10;99.90;;;;;;5074911;28;20241;-54
2021/12/18 06:02:56;;;;;;;47.90;24.47;;;7.10;99.90;;;;;;5071408;28;20252;-54
2021/12/18 06:05:24;;;;;;;85.57;31.90;;;7.00;99.90;;;;;;5071077;28;20212;-54
2021/12/18 06:07:57;;;;;;;58.07;28.90;;;6.80;99.90;;;;;;5084087;28;20315;-53
2021/12/18 06:10:28;;;;;;;87.67;33.37;;;6.90;99.90;;;;;;5090559;28;20228;-54
2021/12/18 06:12:57;;;;;;;51.03;28.13;;;6.80;99.90;;;;;;5091362;28;20801;-53
2021/12/18 06:15:27;;;;;;;57.00;29.30;;;6.80;99.90;;;;;;5091444;28;20257;-55
2021/12/18 06:17:56;;;;;;;51.50;27.47;;;6.90;99.90;;;;;;5091506;28;20321;-54
2021/12/18 06:20:25;;;;;;;51.83;26.43;;;6.90;99.90;;;;;;5091579;28;20207;-53
2021/12/18 06:22:54;;;;;;;45.23;25.00;;;6.90;99.90;;;;;;5091280;28;20259;-54
2021/12/18 06:25:22;;;;;;;43.70;23.67;;;6.90;99.90;;;;;;5091613;28;20306;-54
2021/12/18 06:27:50;;;;;;;44.40;23.83;;;6.90;99.90;;;;;;5090944;28;20735;-54
2021/12/18 06:30:19;;;;;;;49.67;27.63;;;6.90;99.90;;;;;;5091521;28;20233;-54
2021/12/18 06:32:48;;;;;;;75.53;30.10;;;7.00;99.90;;;;;;5091080;28;20259;-53
2021/12/18 06:35:16;;;;;;;60.40;28.43;;;6.90;99.90;;;;;;5091419;28;20251;-53
2021/12/18 06:37:44;;;;;;;50.00;25.33;;;6.80;99.90;;;;;;5091363;28;20305;-53
2021/12/18 06:40:13;;;;;;;49.70;26.20;;;6.90;99.90;;;;;;5079801;28;20235;-54
2021/12/18 06:42:42;;;;;;;49.10;26.30;;;6.80;99.90;;;;;;5070702;28;20314;-54
2021/12/18 06:45:11;;;;;;;88.47;32.87;;;6.80;99.90;;;;;;5071077;28;20209;-54
2021/12/18 06:47:41;;;;;;;55.00;28.47;;;6.80;99.90;;;;;;5083977;28;20206;-53
2021/12/18 06:50:11;;;;;;;46.33;26.80;;;6.80;99.90;;;;;;5090768;28;20206;-53
2021/12/18 06:52:39;;;;;;;45.87;25.63;;;6.80;99.90;;;;;;5090506;28;20266;-53
2021/12/18 06:55:07;;;;;;;41.60;22.87;;;6.80;99.90;;;;;;5091177;28;20302;-53
2021/12/18 06:57:35;;;;;;;39.43;23.17;;;6.90;99.90;;;;;;5091382;28;20623;-53
2021/12/18 07:00:07;;;;;;;42.10;23.30;;;6.90;99.90;;;;;;5077858;28;20295;-53
2021/12/18 07:02:35;;;;;;;42.70;23.50;;;6.90;99.90;;;;;;5070739;28;20667;-53
2021/12/18 07:05:03;;;;;;;44.03;23.87;;;7.00;99.90;;;;;;5070976;28;20240;-54
2021/12/18 07:07:33;;;;;;;55.90;26.40;;;7.00;99.90;;;;;;5084850;28;20693;-53
2021/12/18 07:10:01;;;;;;;57.43;27.43;;;7.00;99.90;;;;;;5090954;28;20290;-54
2021/12/18 07:12:29;;;;;;;54.87;28.73;;;7.00;99.90;;;;;;5090825;28;20257;-53
2021/12/18 07:14:57;;;;;;;44.13;25.37;;;7.00;99.90;;;;;;5090972;28;20206;-54
2021/12/18 07:17:25;;;;;;;48.13;25.57;;;7.00;99.90;;;;;;5090495;28;20247;-55
2021/12/18 07:19:53;;;;;;;49.57;25.63;;;7.00;99.90;;;;;;5091012;28;20281;-54
2021/12/18 07:22:21;;;;;;;50.87;26.43;;;7.00;99.90;;;;;;5091136;28;20297;-54
2021/12/18 07:24:51;;;;;;;52.80;25.10;;;7.00;99.90;;;;;;5093455;28;20693;-54
2021/12/18 07:27:19;;;;;;;53.90;25.30;;;7.00;99.90;;;;;;5094298;28;20627;-54
2021/12/18 07:29:47;;;;;;;45.30;25.17;;;7.00;99.90;;;;;;5094584;28;20236;-54
2021/12/18 07:32:15;;;;;;;44.30;24.60;;;6.90;99.90;;;;;;5094186;28;20232;-53
2021/12/18 07:34:53;;;;;;;46.57;24.43;;;7.00;99.90;;;;;;5094016;28;20208;-53
2021/12/18 07:37:23;;;;;;;44.47;23.20;;;7.00;99.90;;;;;;5075861;28;20291;-53
2021/12/18 07:39:54;;;;;;;39.57;21.67;;;6.90;99.90;;;;;;5074090;28;20271;-53
2021/12/18 07:42:23;;;;;;;40.73;22.37;;;6.90;99.90;;;;;;5073965;28;20271;-55
2021/12/18 07:44:52;;;;;;;44.13;23.20;;;7.00;99.90;;;;;;5073701;28;20266;-54
2021/12/18 07:47:20;;;;;;;48.70;25.43;;;6.80;99.90;;;;;;5073693;28;20245;-54
2021/12/18 07:49:48;;;;;;;50.77;27.87;;;6.80;99.90;;;;;;5092942;28;20242;-54
2021/12/18 07:52:16;;;;;;;46.53;24.80;;;6.90;99.90;;;;;;5093410;28;20291;-54
2021/12/18 07:54:45;;;;;;;67.33;26.90;;;7.00;99.90;;;;;;5093680;28;20298;-52
2021/12/18 07:57:14;;;;;;;39.30;22.57;;;6.90;99.90;;;;;;5093982;28;20239;-53
2021/12/18 07:59:43;;;;;;;59.87;25.57;;;6.90;99.90;;;;;;5086230;28;20259;-55
2021/12/18 08:02:11;;;;;;;44.20;25.33;;;6.90;99.90;;;;;;5073695;28;20217;-55
2021/12/18 08:04:39;;;;;;;72.93;30.23;;;6.90;99.90;;;;;;5073362;28;20261;-55
2021/12/18 08:07:07;;;;;;;47.13;24.33;;;7.00;99.90;;;;;;5081375;28;20212;-56
2021/12/18 08:09:35;;;;;;;48.60;23.93;;;7.00;99.90;;;;;;5073376;28;20300;-56
2021/12/18 08:12:04;;;;;;;43.60;22.13;;;7.00;99.90;;;;;;5073077;28;20201;-54
2021/12/18 08:14:33;;;;;;;36.73;20.17;;;7.10;99.90;;;;;;5072865;28;20251;-55
2021/12/18 08:17:02;;;;;;;33.13;17.80;;;7.10;99.90;;;;;;5073057;28;20239;-55
2021/12/18 08:19:31;;;;;;;30.97;17.77;;;7.20;99.90;;;;;;5072752;28;20215;-55
2021/12/18 08:21:59;;;;;;;30.80;17.40;;;7.20;99.90;;;;;;5072777;28;20262;-55
2021/12/18 08:24:27;;;;;;;27.27;15.97;;;7.20;99.90;;;;;;5076740;28;20209;-52
2021/12/18 08:26:55;;;;;;;29.20;15.93;;;7.20;99.90;;;;;;5090822;28;20640;-55
2021/12/18 08:29:23;;;;;;;24.90;13.37;;;7.30;99.90;;;;;;5095108;28;20228;-55
2021/12/18 08:31:53;;;;;;;25.57;15.70;;;7.20;99.90;;;;;;5093222;28;20629;-56
2021/12/18 08:34:23;;;;;;;28.00;16.20;;;7.30;99.90;;;;;;5092531;28;20234;-56
2021/12/18 08:36:52;;;;;;;26.70;14.10;;;7.30;99.90;;;;;;5078824;28;20254;-55
2021/12/18 08:39:20;;;;;;;23.23;13.43;;;7.30;99.90;;;;;;5075192;28;20270;-54
2021/12/18 08:41:48;;;;;;;22.33;12.53;;;7.20;99.90;;;;;;5092907;28;20283;-55
2021/12/18 08:44:17;;;;;;;15.30;9.93;;;7.20;99.90;;;;;;5085010;28;20314;-55
2021/12/18 08:46:45;;;;;;;16.87;9.73;;;7.30;99.90;;;;;;5077920;28;20636;-54
2021/12/18 08:49:15;;;;;;;14.63;9.57;;;7.30;99.90;;;;;;5092126;28;20294;-56
2021/12/18 08:51:43;;;;;;;23.87;12.50;;;7.30;99.90;;;;;;5092347;28;20231;-55
2021/12/18 08:54:11;;;;;;;26.07;18.37;;;7.30;99.90;;;;;;5092340;28;20223;-55
2021/12/18 08:56:59;;;;;;;20.90;13.73;;;7.30;99.90;;;;;;5093069;28;20208;-54
2021/12/18 08:59:27;;;;;;;15.57;10.80;;;7.20;99.90;;;;;;5090546;28;20258;-54
2021/12/18 09:01:55;;;;;;;19.73;11.13;;;7.30;99.90;;;;;;5092505;28;20286;-55
2021/12/18 09:04:25;;;;;;;19.07;11.50;;;7.30;99.90;;;;;;5092603;28;20242;-55
2021/12/18 09:06:53;;;;;;;18.80;11.30;;;7.30;99.90;;;;;;5092262;28;20706;-55
2021/12/18 09:09:21;;;;;;;26.43;14.10;;;7.40;99.90;;;;;;5092548;28;20302;-54
2021/12/18 09:11:49;;;;;;;24.70;15.50;;;7.40;99.90;;;;;;5092532;28;20232;-54
2021/12/18 09:14:18;;;;;;;27.23;19.87;;;7.40;99.90;;;;;;5092781;28;20256;-55
2021/12/18 09:16:46;;;;;;;27.97;17.83;;;7.40;99.90;;;;;;5092263;28;20243;-55
2021/12/18 09:19:14;;;;;;;31.17;17.37;;;7.50;99.90;;;;;;5073924;28;20759;-56
2021/12/18 09:21:44;;;;;;;15.90;10.13;;;7.50;99.90;;;;;;5088601;28;20242;-55
2021/12/18 09:24:12;;;;;;;18.03;9.90;;;7.50;99.90;;;;;;5092124;28;20255;-54
2021/12/18 09:26:40;;;;;;;15.50;10.13;;;7.50;99.90;;;;;;5092207;28;20235;-55
2021/12/18 09:29:08;;;;;;;16.37;9.97;;;7.50;99.90;;;;;;5092085;28;20230;-54
2021/12/18 09:31:36;;;;;;;14.30;9.40;;;7.60;99.90;;;;;;5091798;28;20302;-55
2021/12/18 09:34:04;;;;;;;14.27;8.43;;;7.60;99.90;;;;;;5091765;28;20256;-55
2021/12/18 09:36:33;;;;;;;13.30;8.67;;;7.60;99.90;;;;;;5080373;28;20237;-54
2021/12/18 09:39:04;;;;;;;15.83;8.97;;;7.60;99.90;;;;;;5071152;28;20910;-54
2021/12/18 09:41:33;;;;;;;11.87;8.23;;;7.60;99.90;;;;;;5084429;28;20215;-53
2021/12/18 09:44:02;;;;;;;13.30;7.93;;;7.60;99.90;;;;;;5091670;28;20239;-55
2021/12/18 09:46:32;;;;;;;13.67;8.63;;;7.60;99.90;;;;;;5090525;28;20298;-55
2021/12/18 09:49:02;;;;;;;15.80;9.50;;;7.70;99.90;;;;;;5091674;28;20238;-54
2021/12/18 09:51:31;;;;;;;21.43;14.27;;;7.70;99.90;;;;;;5091322;28;20257;-53
2021/12/18 09:53:59;;;;;;;30.03;16.47;;;7.80;99.90;;;;;;5091456;28;20251;-54
2021/12/18 09:56:29;;;;;;;24.80;11.93;;;7.80;99.90;;;;;;5079186;28;20209;-55
2021/12/18 09:58:57;;;;;;;22.97;10.67;;;7.90;99.90;;;;;;5070860;28;20224;-54
2021/12/18 10:01:25;;;;;;;20.23;10.23;;;7.90;99.90;;;;;;5070927;28;20679;-52
2021/12/18 10:03:56;;;;;;;17.33;10.30;;;7.90;99.90;;;;;;5071481;28;20681;-52
2021/12/18 10:06:38;;;;;;;25.00;9.67;;;7.90;99.90;;;;;;5085686;28;20295;-53
2021/12/18 10:09:09;;;;;;;16.13;9.70;;;8.00;99.90;;;;;;5091481;28;20214;-55
2021/12/18 10:11:47;;;;;;;13.10;8.70;;;7.90;99.90;;;;;;5090289;28;20231;-55
2021/12/18 10:14:16;;;;;;;16.27;8.40;;;7.90;99.90;;;;;;5083354;28;20303;-54
2021/12/18 10:16:46;;;;;;;22.97;13.10;;;7.90;99.90;;;;;;5069912;28;20200;-55
2021/12/18 10:19:25;;;;;;;11.97;8.70;;;7.90;99.90;;;;;;5070338;28;20729;-54
2021/12/18 10:21:58;;;;;;;17.83;9.37;;;7.90;99.90;;;;;;5071977;28;20676;-54
2021/12/18 10:24:28;;;;;;;15.67;10.27;;;7.90;99.90;;;;;;5082270;28;20204;-55
2021/12/18 10:26:57;;;;;;;14.47;9.60;;;8.00;99.90;;;;;;5076624;28;20287;-54
2021/12/18 10:29:31;;;;;;;22.73;12.30;;;8.00;99.90;;;;;;5080990;28;20295;-55
2021/12/18 10:32:08;;;;;;;16.93;10.37;;;8.00;99.90;;;;;;5086475;28;20235;-55
2021/12/18 10:34:37;;;;;;;16.43;10.07;;;8.00;99.90;;;;;;5086936;28;20287;-54
2021/12/18 10:37:18;;;;;;;18.23;9.47;;;7.90;99.90;;;;;;5080177;28;20295;-57
2021/12/18 10:39:58;;;;;;;16.10;9.10;;;7.90;99.90;;;;;;5079945;28;20266;-55
2021/12/18 10:42:31;;;;;;;12.47;8.50;;;7.90;99.90;;;;;;5074295;28;20254;-54
2021/12/18 10:45:08;;;;;;;13.27;8.60;;;7.80;99.90;;;;;;5082958;28;20708;-55
2021/12/18 10:47:49;;;;;;;15.87;9.63;;;7.90;99.90;;;;;;5079287;28;20251;-54
2021/12/18 10:50:21;;;;;;;17.03;9.93;;;7.90;99.90;;;;;;5075583;28;20257;-55
2021/12/18 10:53:01;;;;;;;16.57;10.30;;;8.00;99.90;;;;;;5084003;28;20260;-55
2021/12/18 10:55:33;;;;;;;19.03;9.87;;;8.00;99.90;;;;;;5073414;28;20235;-54
2021/12/18 10:58:05;;;;;;;28.57;19.23;;;8.00;99.90;;;;;;5089963;28;20235;-56
2021/12/18 11:00:46;;;;;;;21.33;15.17;;;8.00;99.90;;;;;;5087041;28;20309;-54
2021/12/18 11:03:24;;;;;;;25.17;17.77;;;8.10;99.90;;;;;;5094662;28;20250;-55
2021/12/18 11:06:20;;;;;;;22.57;15.97;;;8.10;99.90;;;;;;5094837;28;20203;-54
2021/12/18 11:08:59;;;;;;;19.83;11.67;;;8.10;99.90;;;;;;5094989;28;20220;-55
2021/12/18 11:14:20;;;;;;;17.67;11.93;;;8.20;99.90;;;;;;5094706;28;20803;-54
2021/12/18 11:16:49;;;;;;;13.53;9.77;;;8.20;99.90;;;;;;5094808;28;20287;-54
2021/12/18 11:19:19;;;;;;;22.27;17.77;;;8.30;99.90;;;;;;5094386;28;20740;-55
2021/12/18 11:21:51;;;;;;;13.77;9.70;;;8.30;99.90;;;;;;5100434;28;21010;-53
2021/12/18 11:24:21;;;;;;;14.33;11.93;;;8.30;99.90;;;;;;5099998;28;20610;-56
2021/12/18 11:26:57;;;;;;;11.83;10.40;;;8.30;99.90;;;;;;5094911;28;20608;-56
2021/12/18 11:29:34;;;;;;;8.73;7.13;;;8.40;99.90;;;;;;5094283;28;20295;-56
2021/12/18 11:32:03;;;;;;;9.73;7.57;;;8.30;99.90;;;;;;5094413;28;20268;-55
2021/12/18 11:34:32;;;;;;;9.10;6.70;;;8.30;99.90;;;;;;5093430;28;20250;-54
2021/12/18 11:37:00;;;;;;;13.83;8.53;;;8.30;99.90;;;;;;5094308;28;20283;-53
2021/12/18 11:39:31;;;;;;;18.67;12.30;;;8.30;99.90;;;;;;5089452;28;20243;-54
2021/12/18 11:41:59;;;;;;;12.17;6.70;;;8.20;99.90;;;;;;5073409;28;20278;-55
2021/12/18 11:44:35;;;;;;;11.57;7.00;;;8.10;99.90;;;;;;5078642;28;20224;-55
2021/12/18 11:47:26;;;;;;;13.43;8.50;;;8.10;99.90;;;;;;5093694;28;20672;-55
2021/12/18 11:49:57;;;;;;;18.03;9.70;;;8.10;99.90;;;;;;5091134;28;20212;-55
2021/12/18 11:52:25;;;;;;;9.37;7.10;;;8.00;99.90;;;;;;5093629;28;20259;-56
2021/12/18 11:54:56;;;;;;;10.47;7.53;;;8.00;99.90;;;;;;5094067;28;20261;-56
2021/12/18 11:57:52;;;;;;;10.03;6.50;;;8.00;99.90;;;;;;5093503;28;20283;-55
2021/12/18 12:00:50;;;;;;;10.00;7.40;;;8.00;99.90;;;;;;5058485;28;20625;-55
2021/12/18 12:03:36;;;;;;;8.07;6.20;;;8.00;99.90;;;;;;5081579;28;20700;-55
2021/12/18 12:06:19;;;;;;;10.57;7.23;;;8.00;99.90;;;;;;5073557;28;20278;-55
2021/12/18 12:08:51;;;;;;;11.97;9.63;;;8.00;99.90;;;;;;5072036;28;20238;-57
2021/12/18 12:11:23;;;;;;;7.63;6.93;;;8.00;99.90;;;;;;5084553;28;20228;-55
2021/12/18 12:13:54;;;;;;;6.37;4.50;;;8.10;99.90;;;;;;5093461;28;20293;-53
2021/12/18 12:16:56;;;;;;;6.90;4.80;;;8.10;99.90;;;;;;5093533;28;20224;-55
2021/12/18 12:19:39;;;;;;;8.77;6.17;;;8.00;99.90;;;;;;5093053;28;20252;-53
2021/12/18 12:22:09;;;;;;;8.70;5.90;;;8.00;99.90;;;;;;5088142;28;20655;-53
2021/12/18 12:24:54;;;;;;;8.77;6.10;;;8.00;99.90;;;;;;5072856;28;20673;-53
2021/12/18 12:27:28;;;;;;;8.57;5.30;;;8.00;99.90;;;;;;5075575;28;20645;-53
2021/12/18 12:29:57;;;;;;;8.40;6.03;;;7.90;99.90;;;;;;5082957;28;20714;-54
2021/12/18 12:32:25;;;;;;;7.37;5.00;;;8.00;99.90;;;;;;5092785;28;20259;-52
2021/12/18 12:35:04;;;;;;;7.37;5.37;;;8.00;99.90;;;;;;5090541;28;20242;-55
2021/12/18 12:37:35;;;;;;;6.70;5.10;;;7.90;99.90;;;;;;5085303;28;20282;-54
2021/12/18 12:40:07;;;;;;;6.93;5.47;;;7.90;99.90;;;;;;5081208;28;20242;-55
2021/12/18 12:42:35;;;;;;;10.27;8.80;;;7.90;99.90;;;;;;5080961;28;20306;-54
2021/12/18 12:45:09;;;;;;;7.17;5.57;;;8.00;99.90;;;;;;5082370;28;20247;-52
2021/12/18 12:47:38;;;;;;;6.27;5.03;;;8.00;99.90;;;;;;5084998;28;20231;-54
2021/12/18 12:50:30;;;;;;;7.50;6.00;;;8.10;99.90;;;;;;5092780;28;20286;-53
2021/12/18 12:53:03;;;;;;;6.47;4.73;;;8.00;99.90;;;;;;5092299;28;20652;-54
2021/12/18 12:55:37;;;;;;;8.13;5.30;;;8.10;99.90;;;;;;5085251;28;20236;-52
2021/12/18 12:58:16;;;;;;;6.00;4.90;;;8.10;99.90;;;;;;5072577;28;20759;-53
2021/12/18 13:00:54;;;;;;;6.83;5.07;;;8.20;99.90;;;;;;5071971;28;20699;-55
2021/12/18 13:03:31;;;;;;;7.13;4.90;;;8.20;99.90;;;;;;5077065;28;20264;-53
2021/12/18 13:06:08;;;;;;;8.90;5.90;;;8.30;99.90;;;;;;5092721;28;20211;-53
2021/12/18 13:08:39;;;;;;;7.37;5.33;;;8.20;99.90;;;;;;5092444;28;20700;-55
2021/12/18 13:11:09;;;;;;;31.17;28.07;;;8.30;99.90;;;;;;5073468;28;20247;-56
2021/12/18 13:13:37;;;;;;;15.30;11.00;;;8.20;99.90;;;;;;5079662;28;20263;-52
2021/12/18 13:16:10;;;;;;;12.43;10.23;;;8.20;99.90;;;;;;5091746;28;20236;-53
2021/12/18 13:18:40;;;;;;;11.33;8.00;;;8.10;99.90;;;;;;5085737;28;20288;-54
2021/12/18 13:21:11;;;;;;;12.23;9.93;;;8.20;99.90;;;;;;5075992;28;22116;-53
2021/12/18 13:23:45;;;;;;;10.03;7.40;;;8.20;99.90;;;;;;5081340;28;20297;-52
2021/12/18 13:26:16;;;;;;;32.57;21.10;;;8.20;99.90;;;;;;5084434;28;20265;-53
2021/12/18 13:29:06;;;;;;;53.63;36.50;;;8.20;99.90;;;;;;5084265;28;20663;-53
2021/12/18 13:31:38;;;;;;;336.27;204.90;;;8.20;99.90;;;;;;5089442;28;20258;-54